La Moille, Illinois
Current Conditions -  °F | °C
As of 3:15 AM on Friday 19 Dec 2014 (Local Time) from KVYS Reporting Station
Overcast Overcast  
Wind Chill: 14°   Ceiling: 1800
Heat Index: 20°   Visibility: 7mi
Dew Point: 18°   Wind: 5mph
Humidity: 89%   Direction: 260°W
Pressure: 30.3"   Gusts: NA
Location:  41.53°N, 89.28°W
Report Text: KVYS 190915Z AUTO 26004KT 7SM OVC018 M06/M08 A3030 RMK AO2 T10651080
Loading
Personal Weather Stations






























Interactive Weather Map New forecast layout! Learn more

10-Day Weather Forecast

Advertisements
Track Severe Weather on mobile